Time;durP1;ratioP1;P1;durP2;ratioP2;P2;SDS_P1;SDS_P2;PMS_P1;PMS_P2;Temp;Humidity;BMP_temperature;BMP_pressure;BME280_temperature;BME280_humidity;BME280_pressure;Samples;Min_cycle;Max_cycle;Signal;HPM_P1;HPM_P2
2022/12/21 00:01:21;;;;;;;553.80;315.13;;;0.00;1.00;;;;;;5050924;28;20128;-79
2022/12/21 00:03:53;;;;;;;555.92;327.17;;;0.00;1.00;;;;;;5050900;28;20044;-79
2022/12/21 00:06:22;;;;;;;471.88;285.80;;;0.00;1.00;;;;;;5050312;28;20099;-80
2022/12/21 00:08:51;;;;;;;524.78;308.00;;;0.00;99.90;;;;;;5050483;28;20485;-79
2022/12/21 00:11:21;;;;;;;481.23;287.45;;;-0.10;76.30;;;;;;5050379;28;20052;-78
2022/12/21 00:13:50;;;;;;;486.17;290.88;;;-0.10;99.90;;;;;;5050115;28;20056;-79
2022/12/21 00:16:20;;;;;;;469.58;282.52;;;-0.10;99.90;;;;;;5050393;28;20049;-80
2022/12/21 00:18:48;;;;;;;459.08;274.95;;;-0.10;1.00;;;;;;5051012;28;20048;-78
2022/12/21 00:21:17;;;;;;;464.23;276.45;;;-0.10;1.00;;;;;;5049412;28;20041;-78
2022/12/21 00:23:49;;;;;;;451.20;270.25;;;-0.20;1.00;;;;;;5051753;28;20037;-78
2022/12/21 00:26:18;;;;;;;445.88;260.45;;;-0.30;1.00;;;;;;5052047;28;20132;-79
2022/12/21 00:28:47;;;;;;;439.02;254.30;;;-0.20;99.90;;;;;;5051063;28;20065;-78
2022/12/21 00:31:16;;;;;;;421.10;237.70;;;-0.20;99.90;;;;;;5051338;28;20037;-79
2022/12/21 00:33:45;;;;;;;424.25;241.85;;;-0.20;99.90;;;;;;5052112;28;20045;-79
2022/12/21 00:36:15;;;;;;;404.27;232.20;;;-0.20;1.00;;;;;;5050631;28;20071;-77
2022/12/21 00:38:43;;;;;;;393.52;230.50;;;-0.20;99.90;;;;;;5049272;28;20049;-78
2022/12/21 00:41:15;;;;;;;393.10;226.45;;;-0.20;99.90;;;;;;5050030;28;20040;-80
2022/12/21 00:43:44;;;;;;;417.67;240.45;;;-0.20;1.00;;;;;;5048130;28;20053;-78
2022/12/21 00:46:16;;;;;;;429.63;243.73;;;-0.30;99.90;;;;;;5047264;28;20055;-79
2022/12/21 00:48:44;;;;;;;433.20;245.43;;;-0.30;99.90;;;;;;5048671;28;20083;-79
2022/12/21 00:51:15;;;;;;;424.58;239.43;;;-0.20;7.30;;;;;;5049057;28;20045;-79
2022/12/21 00:53:43;;;;;;;429.40;238.50;;;-0.20;99.90;;;;;;5048482;28;20136;-79
2022/12/21 00:56:12;;;;;;;421.05;244.13;;;-0.20;1.00;;;;;;5049680;28;20045;-77
2022/12/21 00:58:40;;;;;;;441.08;254.88;;;-0.20;1.00;;;;;;5050311;28;20052;-78
2022/12/21 01:01:09;;;;;;;433.50;249.57;;;-0.20;99.90;;;;;;5050239;28;20499;-77
2022/12/21 01:03:37;;;;;;;437.50;254.23;;;-0.20;99.90;;;;;;5048760;28;20049;-78
2022/12/21 01:06:05;;;;;;;429.30;250.30;;;-0.20;1.00;;;;;;5047711;28;20041;-79
2022/12/21 01:08:33;;;;;;;432.15;248.15;;;-0.30;1.00;;;;;;5049213;28;20056;-79
2022/12/21 01:11:02;;;;;;;398.75;227.88;;;-0.30;1.00;;;;;;5049814;28;20051;-79
2022/12/21 01:13:32;;;;;;;367.90;209.40;;;-0.20;1.00;;;;;;5049182;28;20087;-78
2022/12/21 01:16:00;;;;;;;323.25;176.35;;;-0.30;99.90;;;;;;5056130;28;20045;-79
2022/12/21 01:18:28;;;;;;;305.08;165.70;;;-0.30;99.90;;;;;;5057379;28;20045;-78
2022/12/21 01:20:56;;;;;;;285.65;152.68;;;-0.30;1.00;;;;;;5058535;28;20037;-78
2022/12/21 01:23:24;;;;;;;309.67;167.20;;;-0.20;1.00;;;;;;5052986;28;20064;-78
2022/12/21 01:25:52;;;;;;;321.48;171.13;;;-0.20;1.00;;;;;;5049655;28;20049;-79
2022/12/21 01:28:20;;;;;;;324.55;175.07;;;-0.30;1.00;;;;;;5047746;28;20056;-76
2022/12/21 01:30:49;;;;;;;340.77;190.15;;;-0.30;1.00;;;;;;5049815;28;20051;-78
2022/12/21 01:33:19;;;;;;;339.13;189.98;;;-0.30;7.90;;;;;;5049117;28;20091;-77
2022/12/21 01:35:49;;;;;;;341.95;192.00;;;-0.40;1.00;;;;;;5048122;28;20052;-78
2022/12/21 01:38:16;;;;;;;324.02;180.55;;;-0.40;99.90;;;;;;5049094;28;20078;-77
2022/12/21 01:40:43;;;;;;;315.23;175.13;;;-0.40;99.90;;;;;;5048129;28;20055;-78
2022/12/21 01:43:18;;;;;;;319.23;177.35;;;-0.40;1.00;;;;;;5048200;28;20060;-79
2022/12/21 01:45:51;;;;;;;334.33;184.45;;;-0.40;1.00;;;;;;5047076;28;20076;-79
2022/12/21 01:48:20;;;;;;;313.42;178.90;;;-0.40;99.90;;;;;;5048339;28;20060;-79
2022/12/21 01:50:53;;;;;;;316.75;173.43;;;-0.30;1.00;;;;;;5047531;28;20037;-78
2022/12/21 01:53:27;;;;;;;311.38;169.23;;;-0.30;1.00;;;;;;5048635;28;20070;-79
2022/12/21 01:55:57;;;;;;;300.60;165.57;;;-0.30;99.90;;;;;;5049842;28;20041;-79
2022/12/21 01:58:29;;;;;;;309.13;166.95;;;-0.30;1.00;;;;;;5048032;28;20041;-78
2022/12/21 02:01:00;;;;;;;291.45;158.68;;;-0.40;1.00;;;;;;5047602;28;20037;-77
2022/12/21 02:03:32;;;;;;;278.20;152.48;;;-0.40;1.00;;;;;;5038990;28;20492;-78
2022/12/21 02:06:03;;;;;;;273.90;153.60;;;-0.40;79.80;;;;;;5047277;28;20140;-79
2022/12/21 02:08:30;;;;;;;275.38;150.10;;;-0.30;99.90;;;;;;5048085;28;20052;-78
2022/12/21 02:10:59;;;;;;;284.80;154.02;;;-0.40;99.90;;;;;;5040328;28;20045;-79
2022/12/21 02:13:26;;;;;;;294.27;162.07;;;-0.40;22.10;;;;;;5048130;28;20476;-79
2022/12/21 02:16:07;;;;;;;288.63;157.18;;;-0.40;1.00;;;;;;5048992;28;20102;-79
2022/12/21 02:18:53;;;;;;;299.40;157.20;;;-0.50;99.90;;;;;;5049197;28;20049;-79
2022/12/21 02:21:26;;;;;;;299.35;157.20;;;-0.40;99.90;;;;;;5047697;28;20329;-80
2022/12/21 02:24:42;;;;;;;298.20;157.45;;;-0.50;99.90;;;;;;5049350;28;20052;-78
2022/12/21 02:27:28;;;;;;;280.48;150.07;;;-0.50;99.90;;;;;;5009386;28;20069;-79
2022/12/21 02:30:09;;;;;;;296.77;169.05;;;-0.50;99.90;;;;;;5016502;28;20504;-79
2022/12/21 02:32:59;;;;;;;294.65;162.27;;;-0.50;27.70;;;;;;5039203;28;20385;-79
2022/12/21 02:35:42;;;;;;;308.00;167.63;;;-0.50;1.00;;;;;;5056191;28;20087;-79
2022/12/21 02:38:23;;;;;;;294.33;167.95;;;-0.50;1.00;;;;;;5046244;28;20055;-79
2022/12/21 02:40:58;;;;;;;293.25;158.85;;;-0.50;1.00;;;;;;5038845;28;20088;-78
2022/12/21 02:46:26;;;;;;;283.95;157.40;;;-0.60;99.90;;;;;;5046358;28;20045;-78
2022/12/21 02:49:01;;;;;;;279.73;154.57;;;-0.50;1.00;;;;;;5048680;28;20510;-78
2022/12/21 02:51:38;;;;;;;280.23;152.50;;;-0.50;99.90;;;;;;5049100;28;20041;-78
2022/12/21 02:54:06;;;;;;;271.20;146.50;;;-0.50;1.00;;;;;;5048874;28;20051;-78
2022/12/21 02:56:33;;;;;;;271.00;145.55;;;-0.50;1.00;;;;;;5046206;28;20423;-77
2022/12/21 02:59:01;;;;;;;278.98;150.07;;;-0.50;1.00;;;;;;5046265;28;20103;-78
2022/12/21 03:01:43;;;;;;;268.77;143.27;;;-0.50;1.00;;;;;;5047646;28;20043;-80
2022/12/21 03:04:35;;;;;;;278.95;150.13;;;-0.50;99.90;;;;;;5038649;28;20049;-79
2022/12/21 03:07:32;;;;;;;272.33;151.13;;;-0.60;99.90;;;;;;5050347;28;20048;-78
2022/12/21 03:10:11;;;;;;;278.40;149.05;;;-0.60;70.00;;;;;;5051996;28;20049;-78
2022/12/21 03:12:53;;;;;;;275.73;147.23;;;-0.60;99.90;;;;;;5052294;28;20045;-78
2022/12/21 03:15:29;;;;;;;271.60;145.27;;;-0.60;99.90;;;;;;5056966;23;20048;-75
2022/12/21 03:18:02;;;;;;;271.50;145.73;;;-0.60;99.90;;;;;;5008447;28;20054;-76
2022/12/21 03:20:38;;;;;;;276.05;150.93;;;-0.60;99.90;;;;;;5030271;28;20099;-74
2022/12/21 03:23:14;;;;;;;268.85;146.27;;;-0.60;1.00;;;;;;5024578;28;20046;-74
2022/12/21 03:25:46;;;;;;;261.85;149.32;;;-0.60;1.00;;;;;;5022509;28;20030;-74
2022/12/21 03:28:22;;;;;;;257.65;139.82;;;-0.60;1.00;;;;;;5022611;28;20041;-74
2022/12/21 03:30:53;;;;;;;261.73;139.52;;;-0.60;1.00;;;;;;5022152;28;20042;-74
2022/12/21 03:33:25;;;;;;;251.30;137.48;;;-0.60;99.90;;;;;;5023201;28;20040;-74
2022/12/21 03:35:58;;;;;;;256.27;140.50;;;-0.60;25.20;;;;;;5022241;28;20038;-74
2022/12/21 03:38:32;;;;;;;267.90;145.38;;;-0.70;1.00;;;;;;5021019;28;20129;-75
2022/12/21 03:41:02;;;;;;;270.52;148.20;;;-0.80;1.00;;;;;;5021469;28;20557;-73
2022/12/21 03:43:33;;;;;;;265.88;142.25;;;-0.80;1.00;;;;;;5022169;28;20051;-74
2022/12/21 03:46:04;;;;;;;240.00;124.22;;;-0.90;1.00;;;;;;5022200;28;20488;-73
2022/12/21 03:48:36;;;;;;;243.93;128.98;;;-0.90;1.00;;;;;;5021965;28;20049;-74
2022/12/21 03:51:10;;;;;;;240.30;131.40;;;-0.90;1.00;;;;;;5021178;28;20508;-74
2022/12/21 03:53:44;;;;;;;241.32;134.95;;;-0.80;99.90;;;;;;5021776;28;20049;-75
2022/12/21 03:56:17;;;;;;;235.93;131.98;;;-0.80;1.00;;;;;;5021080;28;20132;-75
2022/12/21 03:58:45;;;;;;;241.75;134.13;;;-0.80;1.00;;;;;;5021673;28;20038;-75
2022/12/21 04:01:19;;;;;;;240.63;134.85;;;-0.80;1.00;;;;;;5021097;28;20143;-75
2022/12/21 04:03:52;;;;;;;231.50;129.65;;;-0.80;1.00;;;;;;5019804;28;20513;-75
2022/12/21 04:06:23;;;;;;;236.90;126.80;;;-0.80;1.00;;;;;;5018117;28;20052;-74
2022/12/21 04:08:51;;;;;;;230.38;126.78;;;-0.80;1.00;;;;;;5021293;28;20137;-75
2022/12/21 04:14:01;;;;;;;234.32;127.28;;;-0.80;99.90;;;;;;5020380;28;20127;-75
2022/12/21 04:16:29;;;;;;;239.45;127.65;;;-0.80;99.90;;;;;;5019057;28;20049;-75
2022/12/21 04:21:42;;;;;;;230.60;121.53;;;-0.90;1.00;;;;;;5021894;28;20041;-75
2022/12/21 04:29:40;;;;;;;235.90;130.45;;;-0.90;99.90;;;;;;5021897;28;20060;-75
2022/12/21 04:32:07;;;;;;;242.90;129.85;;;-0.90;99.90;;;;;;5020977;28;20041;-75
2022/12/21 04:34:35;;;;;;;238.07;128.38;;;-1.00;1.00;;;;;;5020264;28;20042;-75
2022/12/21 04:39:48;;;;;;;;;;;-1.00;1.00;;;;;;5019179;28;20069;-74
2022/12/21 04:42:15;;;;;;;238.15;128.50;;;-1.00;99.90;;;;;;5022801;28;19927;-75
2022/12/21 04:44:43;;;;;;;238.65;127.22;;;-1.00;1.00;;;;;;5002923;28;20049;-75
2022/12/21 04:47:10;;;;;;;244.32;132.02;;;-1.10;1.00;;;;;;5009966;28;20101;-74
2022/12/21 04:49:37;;;;;;;258.80;131.45;;;-1.10;99.90;;;;;;5019413;28;20064;-75
2022/12/21 04:52:07;;;;;;;251.02;132.15;;;-1.00;9.80;;;;;;5020428;28;20112;-75
2022/12/21 04:54:34;;;;;;;252.00;133.38;;;-1.00;99.90;;;;;;5021388;28;20045;-74
2022/12/21 04:57:02;;;;;;;246.95;130.00;;;-1.00;99.90;;;;;;5019091;28;20485;-74
2022/12/21 04:59:29;;;;;;;220.45;121.68;;;-1.10;99.90;;;;;;5020204;28;20042;-76
2022/12/21 05:01:56;;;;;;;227.35;120.05;;;-1.00;1.00;;;;;;5020469;28;20044;-76
2022/12/21 05:04:24;;;;;;;207.90;116.18;;;-1.10;99.90;;;;;;5023318;28;20516;-75
2022/12/21 05:06:51;;;;;;;203.85;110.43;;;-1.10;99.90;;;;;;5022199;28;20039;-74
2022/12/21 05:09:20;;;;;;;200.57;110.45;;;-1.10;1.00;;;;;;5019295;28;20049;-75
2022/12/21 05:11:47;;;;;;;211.10;112.82;;;-1.10;99.90;;;;;;5018996;28;20510;-75
2022/12/21 05:14:15;;;;;;;209.23;115.82;;;-1.10;1.00;;;;;;5020782;28;20037;-74
2022/12/21 05:16:42;;;;;;;202.40;112.25;;;-1.10;1.00;;;;;;5019779;28;20050;-75
2022/12/21 05:19:10;;;;;;;194.75;110.43;;;-1.10;99.90;;;;;;5017914;28;20038;-76
2022/12/21 05:21:38;;;;;;;201.48;110.72;;;-1.10;99.90;;;;;;5020972;28;20294;-74
2022/12/21 05:24:06;;;;;;;220.02;117.50;;;-1.10;99.90;;;;;;5019783;28;20040;-74
2022/12/21 05:26:35;;;;;;;234.55;124.90;;;-1.10;5.40;;;;;;5019843;28;20052;-75
2022/12/21 05:29:02;;;;;;;256.58;131.15;;;-1.20;99.90;;;;;;5017783;28;20034;-75
2022/12/21 05:31:30;;;;;;;258.55;133.20;;;-1.20;99.90;;;;;;5021005;28;20041;-75
2022/12/21 05:33:58;;;;;;;254.43;129.93;;;-1.20;99.90;;;;;;5019764;28;20056;-75
2022/12/21 05:36:26;;;;;;;248.07;131.10;;;-1.20;99.90;;;;;;5019347;28;20042;-75
2022/12/21 05:38:55;;;;;;;254.18;134.32;;;-1.20;1.00;;;;;;5018995;28;20065;-75
2022/12/21 05:41:23;;;;;;;233.85;125.38;;;-1.20;1.00;;;;;;5017579;28;20037;-74
2022/12/21 05:43:51;;;;;;;231.00;124.43;;;-1.20;1.00;;;;;;5019725;28;20038;-75
2022/12/21 05:46:19;;;;;;;226.35;126.10;;;-1.20;1.00;;;;;;5018320;28;20046;-75
2022/12/21 05:48:46;;;;;;;238.75;127.55;;;-1.20;1.00;;;;;;5019408;28;20040;-76
2022/12/21 05:51:15;;;;;;;232.55;130.73;;;-1.10;99.90;;;;;;5020121;28;20409;-75
2022/12/21 05:53:44;;;;;;;239.20;128.52;;;-1.20;99.90;;;;;;5002586;28;20056;-76
2022/12/21 05:56:12;;;;;;;239.48;130.80;;;-1.20;1.00;;;;;;5019596;28;20037;-75
2022/12/21 05:58:40;;;;;;;235.60;126.85;;;-1.20;1.00;;;;;;5019204;28;20081;-75
2022/12/21 06:01:11;;;;;;;257.73;142.63;;;-1.20;1.00;;;;;;5000662;28;20133;-76
2022/12/21 06:03:39;;;;;;;232.48;128.30;;;-1.20;1.00;;;;;;5030152;28;20053;-76
2022/12/21 06:06:08;;;;;;;245.15;132.85;;;-1.20;99.90;;;;;;5031731;28;20056;-76
2022/12/21 06:08:36;;;;;;;289.95;150.73;;;-1.10;1.00;;;;;;5035164;28;20048;-76
2022/12/21 06:11:06;;;;;;;332.17;167.38;;;-1.10;1.00;;;;;;5030626;28;20068;-76
2022/12/21 06:13:33;;;;;;;333.77;179.18;;;-1.10;99.90;;;;;;5027656;28;20156;-75
2022/12/21 06:16:06;;;;;;;309.15;172.98;;;-1.10;1.00;;;;;;5011698;28;20210;-75
2022/12/21 06:18:36;;;;;;;294.17;159.90;;;-1.10;1.00;;;;;;5006151;28;20485;-75
2022/12/21 06:21:04;;;;;;;286.58;157.27;;;-1.10;1.00;;;;;;5018725;28;20041;-75
2022/12/21 06:23:32;;;;;;;270.02;147.20;;;-1.10;1.00;;;;;;5019599;28;20556;-76
2022/12/21 06:26:00;;;;;;;268.13;146.93;;;-1.10;1.00;;;;;;5019637;28;20041;-74
2022/12/21 06:28:29;;;;;;;288.55;152.75;;;-1.10;1.00;;;;;;5019323;28;20501;-75
2022/12/21 06:31:02;;;;;;;295.70;157.43;;;-1.10;1.00;;;;;;5019029;28;20046;-74
2022/12/21 06:33:29;;;;;;;280.38;150.18;;;-1.00;1.00;;;;;;5017861;28;20052;-76
2022/12/21 06:35:59;;;;;;;280.08;146.77;;;-1.00;1.00;;;;;;5019620;28;20041;-75
2022/12/21 06:38:26;;;;;;;280.52;150.65;;;-1.10;99.90;;;;;;5020200;28;20037;-75
2022/12/21 06:40:56;;;;;;;290.67;154.63;;;-1.00;1.00;;;;;;5021890;28;20060;-75
2022/12/21 06:43:24;;;;;;;281.60;151.55;;;-1.00;27.10;;;;;;5021930;28;20113;-74
2022/12/21 06:45:55;;;;;;;320.35;173.57;;;-1.00;99.90;;;;;;5023345;28;20034;-76
2022/12/21 06:48:23;;;;;;;393.10;212.23;;;-0.90;1.00;;;;;;5024557;28;20041;-75
2022/12/21 06:50:54;;;;;;;456.52;234.95;;;-0.90;1.00;;;;;;5023565;28;20049;-74
2022/12/21 06:53:24;;;;;;;423.95;225.40;;;-0.80;99.90;;;;;;5022678;28;20053;-75
2022/12/21 06:55:59;;;;;;;400.98;209.23;;;-0.70;1.00;;;;;;5022356;28;20045;-75
2022/12/21 06:58:27;;;;;;;392.97;201.10;;;-0.60;99.90;;;;;;5022353;28;20041;-76
2022/12/21 07:00:54;;;;;;;382.38;200.23;;;-0.60;1.00;;;;;;5022997;28;20715;-76
2022/12/21 07:03:22;;;;;;;369.40;193.32;;;-0.60;1.00;;;;;;5023389;28;20048;-75
2022/12/21 07:05:50;;;;;;;409.40;218.52;;;-0.50;1.00;;;;;;5020086;28;20038;-74
2022/12/21 07:08:18;;;;;;;371.27;199.60;;;-0.50;1.00;;;;;;5019769;28;20057;-74
2022/12/21 07:10:47;;;;;;;366.55;195.45;;;-0.40;99.90;;;;;;5017586;28;20512;-75
2022/12/21 07:13:14;;;;;;;375.45;201.65;;;-0.40;1.00;;;;;;5003211;28;20489;-74
2022/12/21 07:15:41;;;;;;;427.63;221.73;;;-0.30;1.00;;;;;;5021489;28;20462;-75
2022/12/21 07:18:09;;;;;;;419.42;218.65;;;-0.20;1.00;;;;;;5022020;28;20046;-76
2022/12/21 07:20:36;;;;;;;426.50;219.45;;;-0.20;1.00;;;;;;5022051;28;20041;-75
2022/12/21 07:23:04;;;;;;;401.80;206.15;;;-0.10;99.90;;;;;;5006200;28;20076;-74
2022/12/21 07:25:31;;;;;;;401.42;207.18;;;0.00;95.10;;;;;;5020685;28;20041;-75
2022/12/21 07:28:00;;;;;;;411.25;214.18;;;0.00;1.00;;;;;;5023166;28;20029;-75
2022/12/21 07:30:27;;;;;;;415.23;222.07;;;0.10;16.30;;;;;;5021392;28;20045;-74
2022/12/21 07:32:55;;;;;;;406.33;211.95;;;0.30;32.00;;;;;;5021866;28;20050;-75
2022/12/21 07:35:23;;;;;;;412.95;218.52;;;0.30;1.00;;;;;;5019281;28;20045;-76
2022/12/21 07:37:51;;;;;;;418.05;223.07;;;0.50;1.00;;;;;;5021179;28;20555;-75
2022/12/21 07:40:19;;;;;;;400.80;215.60;;;0.60;99.90;;;;;;5021783;28;20046;-75
2022/12/21 07:42:47;;;;;;;405.52;213.45;;;0.60;99.90;;;;;;5021209;28;20084;-75
2022/12/21 07:45:32;;;;;;;406.17;214.30;;;0.70;99.90;;;;;;5003257;28;20406;-74
2022/12/21 07:48:02;;;;;;;402.75;218.95;;;0.80;99.90;;;;;;5000883;28;20049;-74
2022/12/21 07:50:29;;;;;;;412.20;224.02;;;0.90;1.00;;;;;;5021491;28;20049;-74
2022/12/21 07:52:58;;;;;;;430.70;230.80;;;1.00;1.00;;;;;;5020280;28;20042;-74
2022/12/21 07:55:25;;;;;;;386.80;215.82;;;1.00;1.00;;;;;;5020081;28;20089;-75
2022/12/21 07:57:52;;;;;;;412.73;224.02;;;1.00;1.00;;;;;;5021218;28;20509;-75
2022/12/21 08:00:22;;;;;;;409.15;224.63;;;1.00;1.00;;;;;;5019323;28;20046;-76
2022/12/21 08:02:51;;;;;;;333.98;182.13;;;1.10;99.90;;;;;;5021103;28;20065;-75
2022/12/21 08:05:19;;;;;;;299.27;157.98;;;1.10;99.90;;;;;;5020616;28;20053;-74
2022/12/21 08:07:47;;;;;;;297.55;154.82;;;1.20;1.00;;;;;;5028709;28;20037;-75
2022/12/21 08:10:15;;;;;;;265.60;142.50;;;1.40;1.00;;;;;;5037670;28;20065;-73
2022/12/21 08:12:42;;;;;;;265.80;147.38;;;1.50;1.00;;;;;;5034144;28;20034;-76
2022/12/21 08:15:11;;;;;;;296.80;159.52;;;1.70;1.00;;;;;;5025904;28;20053;-76
2022/12/21 08:17:38;;;;;;;273.05;152.75;;;1.70;1.00;;;;;;5019810;28;20061;-75
2022/12/21 08:20:09;;;;;;;274.55;150.40;;;1.70;1.00;;;;;;5020129;28;20061;-74
2022/12/21 08:22:38;;;;;;;317.25;173.07;;;1.80;1.00;;;;;;5016226;28;20560;-75
2022/12/21 08:25:06;;;;;;;289.85;166.23;;;2.00;1.00;;;;;;5018487;28;20073;-75
2022/12/21 08:27:33;;;;;;;292.67;167.88;;;2.10;1.00;;;;;;5016323;28;20489;-76
2022/12/21 08:30:01;;;;;;;297.85;171.10;;;2.30;99.90;;;;;;5020666;28;20046;-74
2022/12/21 08:32:28;;;;;;;290.85;165.50;;;2.30;63.90;;;;;;5001879;28;20052;-75
2022/12/21 08:34:55;;;;;;;302.42;171.50;;;2.40;1.00;;;;;;5026874;28;20402;-73
2022/12/21 08:37:24;;;;;;;287.20;164.35;;;2.50;1.00;;;;;;5038689;28;20088;-74
2022/12/21 08:39:51;;;;;;;279.08;159.40;;;2.60;1.00;;;;;;5028161;28;20046;-74
2022/12/21 08:42:19;;;;;;;285.92;164.90;;;2.70;1.00;;;;;;5020867;28;20045;-73
2022/12/21 08:44:47;;;;;;;254.82;144.50;;;2.80;1.00;;;;;;5016622;28;20037;-74
2022/12/21 08:47:15;;;;;;;242.55;137.80;;;2.90;1.00;;;;;;5020196;28;20041;-74
2022/12/21 08:49:42;;;;;;;238.63;137.35;;;3.10;1.00;;;;;;5018294;28;20033;-73
2022/12/21 08:52:10;;;;;;;217.52;122.20;;;3.30;1.00;;;;;;5021195;28;20054;-73
2022/12/21 08:54:39;;;;;;;213.30;122.88;;;3.40;1.00;;;;;;5019316;28;20045;-74
2022/12/21 08:57:06;;;;;;;226.85;129.63;;;3.60;1.00;;;;;;5019224;28;20066;-73
2022/12/21 08:59:33;;;;;;;254.93;145.77;;;3.60;99.90;;;;;;5003698;28;20118;-74
2022/12/21 09:02:01;;;;;;;291.30;173.82;;;3.70;1.00;;;;;;5022311;28;20493;-73
2022/12/21 09:04:28;;;;;;;316.70;195.60;;;3.80;1.00;;;;;;5019996;28;20546;-74
2022/12/21 09:06:56;;;;;;;341.35;210.00;;;3.90;1.00;;;;;;5018007;28;20052;-74
2022/12/21 09:09:23;;;;;;;327.83;201.82;;;3.90;51.30;;;;;;5020405;28;20030;-74
2022/12/21 09:11:52;;;;;;;299.02;187.70;;;3.90;99.90;;;;;;5019235;28;20048;-73
2022/12/21 09:14:19;;;;;;;289.00;177.25;;;4.00;99.90;;;;;;5019996;28;20042;-74
2022/12/21 09:16:47;;;;;;;268.05;159.57;;;4.10;1.00;;;;;;5019863;28;20073;-74
2022/12/21 09:19:14;;;;;;;260.95;150.38;;;4.10;99.90;;;;;;5017474;28;20065;-73
2022/12/21 09:21:41;;;;;;;225.70;131.10;;;4.10;99.90;;;;;;5015986;28;20049;-74
2022/12/21 09:24:09;;;;;;;208.57;122.20;;;4.20;1.00;;;;;;5021675;28;20512;-73
2022/12/21 09:26:37;;;;;;;193.10;114.72;;;4.40;1.00;;;;;;5019479;28;20560;-73
2022/12/21 09:29:06;;;;;;;188.70;114.13;;;4.60;1.00;;;;;;5018787;28;20030;-74
2022/12/21 09:31:33;;;;;;;188.63;112.07;;;4.70;1.00;;;;;;5020880;28;20047;-74
2022/12/21 09:34:01;;;;;;;192.65;109.75;;;4.80;1.00;;;;;;5019009;28;20038;-75
2022/12/21 09:36:28;;;;;;;179.35;107.82;;;5.00;99.90;;;;;;5020253;28;20042;-74
2022/12/21 09:38:56;;;;;;;133.82;78.45;;;5.10;99.90;;;;;;5002913;28;20061;-76
2022/12/21 09:41:56;;;;;;;142.77;82.40;;;5.20;99.90;;;;;;5017002;28;20038;-76
2022/12/21 09:44:48;;;;;;;152.85;88.75;;;5.40;28.00;;;;;;4958625;28;20528;-76
2022/12/21 09:47:19;;;;;;;157.55;90.43;;;5.50;99.90;;;;;;5018189;28;20044;-75
2022/12/21 09:49:53;;;;;;;168.10;95.25;;;5.70;99.90;;;;;;5017749;28;20037;-74
2022/12/21 09:52:25;;;;;;;148.23;82.53;;;5.90;1.00;;;;;;5018611;28;20044;-76
2022/12/21 09:54:59;;;;;;;143.13;81.18;;;6.00;1.00;;;;;;5018265;28;20044;-76
2022/12/21 09:57:31;;;;;;;139.70;83.10;;;6.20;1.00;;;;;;5018268;28;20045;-76
2022/12/21 10:00:04;;;;;;;129.32;73.85;;;6.50;1.00;;;;;;5021714;28;20073;-75
2022/12/21 10:02:46;;;;;;;111.28;63.40;;;6.70;99.90;;;;;;5017562;28;20034;-74
2022/12/21 10:05:31;;;;;;;117.32;64.95;;;6.80;1.00;;;;;;5018782;28;20042;-78
2022/12/21 10:08:31;;;;;;;120.87;68.53;;;6.90;1.00;;;;;;5016983;28;20037;-75
2022/12/21 10:11:06;;;;;;;110.65;64.30;;;7.00;1.00;;;;;;5009769;28;20540;-72
2022/12/21 10:13:43;;;;;;;122.95;66.30;;;7.10;1.00;;;;;;5017284;28;20389;-74
2022/12/21 10:16:21;;;;;;;137.70;75.07;;;7.30;1.00;;;;;;5020991;28;20053;-73
2022/12/21 10:19:02;;;;;;;129.25;75.22;;;7.40;99.90;;;;;;5022195;28;20042;-73
2022/12/21 10:21:41;;;;;;;127.93;77.32;;;7.60;99.90;;;;;;5006741;28;20497;-73
2022/12/21 10:54:10;;;;;;;103.55;64.35;;;8.70;1.00;;;;;;5014433;28;20056;-75
2022/12/21 10:56:44;;;;;;;99.07;62.20;;;8.80;1.00;;;;;;5017818;28;20037;-74
2022/12/21 10:59:19;;;;;;;99.10;63.67;;;8.90;1.00;;;;;;5020354;28;20124;-77
2022/12/21 11:01:47;;;;;;;116.93;70.93;;;9.00;1.00;;;;;;5022723;28;20061;-79
2022/12/21 11:04:16;;;;;;;129.18;77.05;;;9.00;99.90;;;;;;5022609;28;20042;-72
2022/12/21 11:07:01;;;;;;;124.53;76.93;;;9.10;99.90;;;;;;5022396;28;20037;-76
2022/12/21 11:09:38;;;;;;;123.50;74.95;;;9.20;99.90;;;;;;5020653;28;20493;-78
2022/12/21 11:12:19;;;;;;;121.63;80.30;;;9.20;99.90;;;;;;5024428;28;20532;-85
2022/12/21 11:14:47;;;;;;;127.97;77.60;;;9.20;99.90;;;;;;5021221;28;20509;-73
2022/12/21 11:17:24;;;;;;;122.13;73.10;;;9.20;99.90;;;;;;5018864;28;20050;-72
2022/12/21 11:20:01;;;;;;;116.90;72.57;;;9.30;99.90;;;;;;5017993;28;20037;-73
2022/12/21 11:22:31;;;;;;;113.75;71.22;;;9.40;99.90;;;;;;5021433;28;20040;-74
2022/12/21 11:25:00;;;;;;;124.30;73.45;;;9.50;99.90;;;;;;5020744;28;20056;-75
2022/12/21 11:27:30;;;;;;;120.10;75.40;;;9.50;99.90;;;;;;5001856;28;20053;-72
2022/12/21 11:30:01;;;;;;;126.57;79.55;;;9.60;99.90;;;;;;5022161;28;20116;-72
2022/12/21 11:32:30;;;;;;;130.38;80.18;;;9.60;99.90;;;;;;5023071;28;20038;-73
2022/12/21 11:35:00;;;;;;;132.95;84.63;;;9.70;99.90;;;;;;5022199;28;20102;-74
2022/12/21 11:37:43;;;;;;;138.27;87.07;;;9.70;99.90;;;;;;5021506;28;20478;-72
2022/12/21 11:40:16;;;;;;;151.35;95.63;;;9.70;99.90;;;;;;5019754;28;20053;-73
2022/12/21 11:42:54;;;;;;;159.70;98.63;;;9.70;99.90;;;;;;5022897;28;20094;-73
2022/12/21 11:45:25;;;;;;;161.23;101.22;;;9.80;99.90;;;;;;5023253;28;20053;-73
2022/12/21 11:48:13;;;;;;;149.63;94.85;;;9.80;99.90;;;;;;5020727;28;20099;-73
2022/12/21 11:50:54;;;;;;;145.13;93.35;;;9.90;99.90;;;;;;5021627;28;20494;-74
2022/12/21 11:53:48;;;;;;;139.80;92.47;;;10.00;99.90;;;;;;5016845;28;20034;-72
2022/12/21 11:56:26;;;;;;;144.90;92.63;;;10.10;99.90;;;;;;5019809;28;20513;-72
2022/12/21 11:59:21;;;;;;;145.50;93.75;;;10.10;99.90;;;;;;5019154;28;20033;-74
2022/12/21 12:02:02;;;;;;;158.43;99.80;;;10.20;99.90;;;;;;5019528;28;20030;-73
2022/12/21 12:04:51;;;;;;;170.68;104.07;;;10.30;99.90;;;;;;5018362;28;20042;-73
2022/12/21 12:07:57;;;;;;;164.52;104.28;;;10.40;99.90;;;;;;5002712;28;20490;-73
2022/12/21 12:10:42;;;;;;;164.13;104.45;;;10.50;99.90;;;;;;5018768;28;20118;-73
2022/12/21 12:13:21;;;;;;;175.10;104.60;;;10.50;99.90;;;;;;5020622;28;20408;-73
2022/12/21 12:15:59;;;;;;;150.35;97.70;;;10.50;99.90;;;;;;5016954;28;20049;-72
2022/12/21 12:18:41;;;;;;;150.93;94.93;;;10.50;99.90;;;;;;5018144;28;20292;-72
2022/12/21 12:21:32;;;;;;;151.23;93.93;;;10.60;99.90;;;;;;5018889;28;20630;-73
2022/12/21 12:24:19;;;;;;;155.75;97.90;;;10.70;99.90;;;;;;5022379;28;20252;-73
2022/12/21 12:26:56;;;;;;;149.07;92.25;;;10.70;99.90;;;;;;5021900;28;20038;-74
2022/12/21 12:29:49;;;;;;;164.95;106.47;;;10.70;99.80;;;;;;5032839;28;20045;-73
2022/12/21 12:32:31;;;;;;;171.73;107.60;;;10.70;99.20;;;;;;5028385;28;20072;-74
2022/12/21 12:35:18;;;;;;;189.63;121.18;;;10.70;99.90;;;;;;5022001;28;20042;-74
2022/12/21 12:37:58;;;;;;;192.27;127.65;;;10.70;99.90;;;;;;5018972;28;20042;-74
2022/12/21 12:40:36;;;;;;;191.27;126.25;;;10.90;99.90;;;;;;5018483;28;20109;-73
2022/12/21 12:43:15;;;;;;;205.20;124.25;;;11.00;99.90;;;;;;5019490;28;20064;-73
2022/12/21 12:45:52;;;;;;;185.63;120.65;;;11.10;99.90;;;;;;5020472;28;20038;-72
2022/12/21 12:48:31;;;;;;;185.70;117.85;;;11.20;99.90;;;;;;5016072;28;20042;-75
2022/12/21 12:51:07;;;;;;;175.20;115.22;;;11.20;99.90;;;;;;5016205;28;20048;-72
2022/12/21 12:53:43;;;;;;;177.70;114.47;;;11.20;99.90;;;;;;5018548;28;20046;-73
2022/12/21 12:56:22;;;;;;;170.77;114.65;;;11.20;99.90;;;;;;5017527;28;20048;-74
2022/12/21 12:59:04;;;;;;;176.85;115.38;;;11.20;99.90;;;;;;5018784;28;20041;-73
2022/12/21 13:01:38;;;;;;;163.15;106.80;;;11.30;99.90;;;;;;5019528;28;20052;-73
2022/12/21 13:04:30;;;;;;;159.57;104.10;;;11.30;99.90;;;;;;5021452;28;20044;-74
2022/12/21 13:07:04;;;;;;;147.63;96.95;;;11.30;99.90;;;;;;5020008;28;20301;-73
2022/12/21 13:09:46;;;;;;;149.20;97.55;;;11.20;99.90;;;;;;5022758;28;20091;-76
2022/12/21 13:12:18;;;;;;;155.40;100.80;;;11.30;99.90;;;;;;5027188;28;20097;-74
2022/12/21 13:14:55;;;;;;;163.48;101.32;;;11.30;99.90;;;;;;5021510;28;20048;-74
2022/12/21 13:17:33;;;;;;;154.48;101.88;;;11.30;99.90;;;;;;5021703;28;20516;-73
2022/12/21 13:20:03;;;;;;;157.90;102.93;;;11.30;99.90;;;;;;5020850;28;20057;-74
2022/12/21 13:22:36;;;;;;;165.50;103.88;;;11.30;99.90;;;;;;5019685;28;20049;-72
2022/12/21 13:25:07;;;;;;;174.57;106.93;;;11.30;99.90;;;;;;5017239;28;20046;-73
2022/12/21 13:27:41;;;;;;;166.18;107.55;;;11.30;99.90;;;;;;5020021;28;20585;-73
2022/12/21 13:30:19;;;;;;;163.45;104.45;;;11.30;99.90;;;;;;5015649;28;20042;-73